sensor_id;sensor_type;location;lat;lon;timestamp;P1;durP1;ratioP1;P2;durP2;ratioP2
65658;SDS011;60181;53.258;6.932;2024-03-23T00:54:25;31.20;;;4.00;;
65658;SDS011;60181;53.258;6.932;2024-03-23T00:58:37;31.20;;;4.00;;
65658;SDS011;60181;53.258;6.932;2024-03-23T01:02:49;23.80;;;4.00;;
65658;SDS011;60181;53.258;6.932;2024-03-23T01:07:01;23.80;;;4.00;;
65658;SDS011;60181;53.258;6.932;2024-03-23T01:11:13;30.80;;;4.30;;
65658;SDS011;60181;53.258;6.932;2024-03-23T01:15:25;30.80;;;4.30;;
65658;SDS011;60181;53.258;6.932;2024-03-23T01:19:37;28.40;;;3.90;;
65658;SDS011;60181;53.258;6.932;2024-03-23T01:23:49;28.40;;;3.90;;
65658;SDS011;60181;53.258;6.932;2024-03-23T01:28:01;28.40;;;3.90;;
65658;SDS011;60181;53.258;6.932;2024-03-23T01:32:13;28.80;;;3.90;;
65658;SDS011;60181;53.258;6.932;2024-03-23T01:36:25;28.80;;;3.90;;
65658;SDS011;60181;53.258;6.932;2024-03-23T01:40:37;30.10;;;4.40;;
65658;SDS011;60181;53.258;6.932;2024-03-23T01:44:49;30.10;;;4.40;;
65658;SDS011;60181;53.258;6.932;2024-03-23T01:49:01;21.90;;;3.70;;
65658;SDS011;60181;53.258;6.932;2024-03-23T01:53:14;21.90;;;3.70;;
65658;SDS011;60181;53.258;6.932;2024-03-23T01:57:25;21.90;;;3.70;;
65658;SDS011;60181;53.258;6.932;2024-03-23T02:01:37;24.30;;;4.10;;
65658;SDS011;60181;53.258;6.932;2024-03-23T02:05:49;24.30;;;4.10;;
65658;SDS011;60181;53.258;6.932;2024-03-23T02:10:01;26.00;;;3.70;;
65658;SDS011;60181;53.258;6.932;2024-03-23T02:14:13;26.00;;;3.70;;
65658;SDS011;60181;53.258;6.932;2024-03-23T02:18:25;26.00;;;3.70;;
65658;SDS011;60181;53.258;6.932;2024-03-23T02:22:37;25.80;;;4.10;;
65658;SDS011;60181;53.258;6.932;2024-03-23T02:26:49;25.80;;;4.10;;
65658;SDS011;60181;53.258;6.932;2024-03-23T02:31:01;29.60;;;3.90;;
65658;SDS011;60181;53.258;6.932;2024-03-23T02:35:13;29.60;;;3.90;;
65658;SDS011;60181;53.258;6.932;2024-03-23T02:39:25;25.60;;;3.90;;
65658;SDS011;60181;53.258;6.932;2024-03-23T02:43:37;25.60;;;3.90;;
65658;SDS011;60181;53.258;6.932;2024-03-23T02:47:49;25.60;;;3.90;;
65658;SDS011;60181;53.258;6.932;2024-03-23T02:52:01;33.30;;;4.10;;
65658;SDS011;60181;53.258;6.932;2024-03-23T02:56:13;33.30;;;4.10;;
65658;SDS011;60181;53.258;6.932;2024-03-23T03:00:25;26.40;;;3.90;;
65658;SDS011;60181;53.258;6.932;2024-03-23T03:04:37;26.40;;;3.90;;
65658;SDS011;60181;53.258;6.932;2024-03-23T03:08:49;26.40;;;3.90;;
65658;SDS011;60181;53.258;6.932;2024-03-23T03:13:01;29.10;;;4.20;;
65658;SDS011;60181;53.258;6.932;2024-03-23T03:17:13;29.10;;;4.20;;
65658;SDS011;60181;53.258;6.932;2024-03-23T03:21:25;23.30;;;4.10;;
65658;SDS011;60181;53.258;6.932;2024-03-23T03:25:37;23.30;;;4.10;;
65658;SDS011;60181;53.258;6.932;2024-03-23T03:29:49;21.90;;;3.90;;
65658;SDS011;60181;53.258;6.932;2024-03-23T03:34:01;21.90;;;3.90;;
65658;SDS011;60181;53.258;6.932;2024-03-23T03:38:13;21.90;;;3.90;;
65658;SDS011;60181;53.258;6.932;2024-03-23T03:42:25;25.00;;;3.60;;
65658;SDS011;60181;53.258;6.932;2024-03-23T03:46:37;25.00;;;3.60;;
65658;SDS011;60181;53.258;6.932;2024-03-23T03:50:49;26.40;;;3.90;;
65658;SDS011;60181;53.258;6.932;2024-03-23T03:55:01;26.40;;;3.90;;
65658;SDS011;60181;53.258;6.932;2024-03-23T03:59:13;20.60;;;3.20;;
65658;SDS011;60181;53.258;6.932;2024-03-23T04:03:25;20.60;;;3.20;;
65658;SDS011;60181;53.258;6.932;2024-03-23T04:07:37;20.60;;;3.20;;
65658;SDS011;60181;53.258;6.932;2024-03-23T04:11:49;23.10;;;3.70;;
65658;SDS011;60181;53.258;6.932;2024-03-23T04:16:01;23.10;;;3.70;;
65658;SDS011;60181;53.258;6.932;2024-03-23T04:20:13;20.20;;;3.10;;
65658;SDS011;60181;53.258;6.932;2024-03-23T04:24:25;20.20;;;3.10;;
65658;SDS011;60181;53.258;6.932;2024-03-23T04:28:37;20.20;;;3.10;;
65658;SDS011;60181;53.258;6.932;2024-03-23T04:32:49;22.70;;;3.30;;
65658;SDS011;60181;53.258;6.932;2024-03-23T04:37:01;22.70;;;3.30;;
65658;SDS011;60181;53.258;6.932;2024-03-23T04:41:13;26.20;;;3.20;;
65658;SDS011;60181;53.258;6.932;2024-03-23T04:45:25;26.20;;;3.20;;
65658;SDS011;60181;53.258;6.932;2024-03-23T04:49:37;22.60;;;3.20;;
65658;SDS011;60181;53.258;6.932;2024-03-23T04:53:49;22.60;;;3.20;;
65658;SDS011;60181;53.258;6.932;2024-03-23T04:58:01;22.60;;;3.20;;
65658;SDS011;60181;53.258;6.932;2024-03-23T05:02:13;29.30;;;3.40;;
65658;SDS011;60181;53.258;6.932;2024-03-23T05:06:25;29.30;;;3.40;;
65658;SDS011;60181;53.258;6.932;2024-03-23T05:10:37;22.30;;;3.10;;
65658;SDS011;60181;53.258;6.932;2024-03-23T05:14:49;22.30;;;3.10;;
65658;SDS011;60181;53.258;6.932;2024-03-23T05:19:01;21.00;;;3.40;;
65658;SDS011;60181;53.258;6.932;2024-03-23T05:23:13;21.00;;;3.40;;
65658;SDS011;60181;53.258;6.932;2024-03-23T05:27:25;21.00;;;3.40;;
65658;SDS011;60181;53.258;6.932;2024-03-23T05:31:37;22.50;;;3.10;;
65658;SDS011;60181;53.258;6.932;2024-03-23T05:35:58;22.50;;;3.10;;
65658;SDS011;60181;53.258;6.932;2024-03-23T05:40:01;17.00;;;3.10;;
65658;SDS011;60181;53.258;6.932;2024-03-23T05:44:13;17.00;;;3.10;;
65658;SDS011;60181;53.258;6.932;2024-03-23T05:48:28;17.00;;;3.10;;
65658;SDS011;60181;53.258;6.932;2024-03-23T05:52:37;17.90;;;2.70;;
65658;SDS011;60181;53.258;6.932;2024-03-23T05:56:49;17.90;;;2.70;;
65658;SDS011;60181;53.258;6.932;2024-03-23T06:01:01;16.00;;;2.70;;
65658;SDS011;60181;53.258;6.932;2024-03-23T06:05:13;16.00;;;2.70;;
65658;SDS011;60181;53.258;6.932;2024-03-23T06:09:25;18.40;;;2.70;;
65658;SDS011;60181;53.258;6.932;2024-03-23T06:13:37;18.40;;;2.70;;
65658;SDS011;60181;53.258;6.932;2024-03-23T06:17:49;18.40;;;2.70;;
65658;SDS011;60181;53.258;6.932;2024-03-23T06:22:01;17.30;;;2.60;;
65658;SDS011;60181;53.258;6.932;2024-03-23T06:26:13;17.30;;;2.60;;
65658;SDS011;60181;53.258;6.932;2024-03-23T06:30:25;15.00;;;2.30;;
65658;SDS011;60181;53.258;6.932;2024-03-23T06:34:37;15.00;;;2.30;;
65658;SDS011;60181;53.258;6.932;2024-03-23T06:38:49;15.00;;;2.30;;
65658;SDS011;60181;53.258;6.932;2024-03-23T06:43:01;21.50;;;2.40;;
65658;SDS011;60181;53.258;6.932;2024-03-23T06:47:13;21.50;;;2.40;;
65658;SDS011;60181;53.258;6.932;2024-03-23T06:51:25;16.10;;;2.20;;
65658;SDS011;60181;53.258;6.932;2024-03-23T06:55:37;16.10;;;2.20;;
65658;SDS011;60181;53.258;6.932;2024-03-23T06:59:49;13.40;;;1.80;;
65658;SDS011;60181;53.258;6.932;2024-03-23T07:04:01;13.40;;;1.80;;
65658;SDS011;60181;53.258;6.932;2024-03-23T07:08:13;13.40;;;1.80;;
65658;SDS011;60181;53.258;6.932;2024-03-23T07:12:25;15.40;;;1.90;;
65658;SDS011;60181;53.258;6.932;2024-03-23T07:16:37;15.40;;;1.90;;
65658;SDS011;60181;53.258;6.932;2024-03-23T07:20:55;17.10;;;2.20;;
65658;SDS011;60181;53.258;6.932;2024-03-23T07:25:01;17.10;;;2.20;;
65658;SDS011;60181;53.258;6.932;2024-03-23T07:29:13;11.90;;;1.70;;
65658;SDS011;60181;53.258;6.932;2024-03-23T07:33:25;11.90;;;1.70;;
65658;SDS011;60181;53.258;6.932;2024-03-23T07:37:37;11.90;;;1.70;;
65658;SDS011;60181;53.258;6.932;2024-03-23T07:41:49;12.40;;;1.50;;
65658;SDS011;60181;53.258;6.932;2024-03-23T07:46:01;12.40;;;1.50;;
65658;SDS011;60181;53.258;6.932;2024-03-23T07:50:13;11.40;;;1.60;;
65658;SDS011;60181;53.258;6.932;2024-03-23T07:54:25;11.40;;;1.60;;
65658;SDS011;60181;53.258;6.932;2024-03-23T07:58:37;11.40;;;1.60;;
65658;SDS011;60181;53.258;6.932;2024-03-23T08:02:50;9.50;;;1.50;;
65658;SDS011;60181;53.258;6.932;2024-03-23T08:07:01;9.50;;;1.50;;
65658;SDS011;60181;53.258;6.932;2024-03-23T08:11:13;15.70;;;1.60;;
65658;SDS011;60181;53.258;6.932;2024-03-23T08:15:25;15.70;;;1.60;;
65658;SDS011;60181;53.258;6.932;2024-03-23T08:19:37;9.90;;;1.40;;
65658;SDS011;60181;53.258;6.932;2024-03-23T08:23:49;9.90;;;1.40;;
65658;SDS011;60181;53.258;6.932;2024-03-23T08:28:01;9.90;;;1.40;;
65658;SDS011;60181;53.258;6.932;2024-03-23T08:32:13;7.60;;;1.50;;
65658;SDS011;60181;53.258;6.932;2024-03-23T08:36:25;7.60;;;1.50;;
65658;SDS011;60181;53.258;6.932;2024-03-23T08:40:37;9.10;;;1.60;;
65658;SDS011;60181;53.258;6.932;2024-03-23T08:44:49;9.10;;;1.60;;
65658;SDS011;60181;53.258;6.932;2024-03-23T08:49:01;8.60;;;1.40;;
65658;SDS011;60181;53.258;6.932;2024-03-23T08:53:13;8.60;;;1.40;;
65658;SDS011;60181;53.258;6.932;2024-03-23T08:57:25;8.60;;;1.40;;
65658;SDS011;60181;53.258;6.932;2024-03-23T09:01:37;5.90;;;1.30;;
65658;SDS011;60181;53.258;6.932;2024-03-23T09:05:49;5.90;;;1.30;;
65658;SDS011;60181;53.258;6.932;2024-03-23T09:10:01;8.20;;;1.40;;
65658;SDS011;60181;53.258;6.932;2024-03-23T09:14:12;8.20;;;1.40;;
65658;SDS011;60181;53.258;6.932;2024-03-23T09:18:24;8.20;;;1.40;;
65658;SDS011;60181;53.258;6.932;2024-03-23T09:22:36;7.60;;;1.30;;
65658;SDS011;60181;53.258;6.932;2024-03-23T09:26:48;7.60;;;1.30;;
65658;SDS011;60181;53.258;6.932;2024-03-23T09:31:06;4.90;;;1.00;;
65658;SDS011;60181;53.258;6.932;2024-03-23T09:35:12;4.90;;;1.00;;
65658;SDS011;60181;53.258;6.932;2024-03-23T09:39:24;7.00;;;1.00;;
65658;SDS011;60181;53.258;6.932;2024-03-23T09:43:36;7.00;;;1.00;;
65658;SDS011;60181;53.258;6.932;2024-03-23T09:47:48;7.00;;;1.00;;
65658;SDS011;60181;53.258;6.932;2024-03-23T09:52:00;3.50;;;1.00;;
65658;SDS011;60181;53.258;6.932;2024-03-23T09:56:12;3.50;;;1.00;;
65658;SDS011;60181;53.258;6.932;2024-03-23T10:00:24;6.00;;;1.40;;
65658;SDS011;60181;53.258;6.932;2024-03-23T10:04:40;6.00;;;1.40;;
65658;SDS011;60181;53.258;6.932;2024-03-23T10:08:48;6.00;;;1.40;;
65658;SDS011;60181;53.258;6.932;2024-03-23T10:13:00;4.80;;;1.20;;
65658;SDS011;60181;53.258;6.932;2024-03-23T10:17:16;4.80;;;1.20;;
65658;SDS011;60181;53.258;6.932;2024-03-23T10:21:24;14.90;;;1.30;;
65658;SDS011;60181;53.258;6.932;2024-03-23T10:25:36;14.90;;;1.30;;
65658;SDS011;60181;53.258;6.932;2024-03-23T10:29:49;9.50;;;1.30;;
65658;SDS011;60181;53.258;6.932;2024-03-23T10:34:01;9.50;;;1.30;;
65658;SDS011;60181;53.258;6.932;2024-03-23T10:38:12;9.50;;;1.30;;
65658;SDS011;60181;53.258;6.932;2024-03-23T10:42:24;12.70;;;1.20;;
65658;SDS011;60181;53.258;6.932;2024-03-23T10:46:36;12.70;;;1.20;;
65658;SDS011;60181;53.258;6.932;2024-03-23T10:50:48;4.30;;;1.10;;
65658;SDS011;60181;53.258;6.932;2024-03-23T10:55:01;4.30;;;1.10;;
65658;SDS011;60181;53.258;6.932;2024-03-23T10:59:12;9.60;;;1.20;;
65658;SDS011;60181;53.258;6.932;2024-03-23T11:03:30;9.60;;;1.20;;
65658;SDS011;60181;53.258;6.932;2024-03-23T11:07:36;9.60;;;1.20;;
65658;SDS011;60181;53.258;6.932;2024-03-23T11:11:48;5.30;;;1.00;;
65658;SDS011;60181;53.258;6.932;2024-03-23T11:16:12;5.30;;;1.00;;
65658;SDS011;60181;53.258;6.932;2024-03-23T11:20:12;9.20;;;1.20;;
65658;SDS011;60181;53.258;6.932;2024-03-23T11:24:24;9.20;;;1.20;;
65658;SDS011;60181;53.258;6.932;2024-03-23T11:28:36;9.20;;;1.20;;
65658;SDS011;60181;53.258;6.932;2024-03-23T11:32:52;5.30;;;1.30;;
65658;SDS011;60181;53.258;6.932;2024-03-23T11:37:06;5.30;;;1.30;;
65658;SDS011;60181;53.258;6.932;2024-03-23T11:41:12;5.50;;;1.30;;
65658;SDS011;60181;53.258;6.932;2024-03-23T11:45:24;5.50;;;1.30;;
65658;SDS011;60181;53.258;6.932;2024-03-23T11:49:36;5.50;;;1.10;;
65658;SDS011;60181;53.258;6.932;2024-03-23T11:53:48;5.50;;;1.10;;
65658;SDS011;60181;53.258;6.932;2024-03-23T11:58:00;5.50;;;1.10;;
65658;SDS011;60181;53.258;6.932;2024-03-23T12:02:13;6.10;;;1.10;;
65658;SDS011;60181;53.258;6.932;2024-03-23T12:06:24;6.10;;;1.10;;
65658;SDS011;60181;53.258;6.932;2024-03-23T12:10:36;4.10;;;1.10;;
65658;SDS011;60181;53.258;6.932;2024-03-23T12:15:07;4.10;;;1.10;;
65658;SDS011;60181;53.258;6.932;2024-03-23T12:19:04;16.10;;;1.50;;
65658;SDS011;60181;53.258;6.932;2024-03-23T12:23:12;16.10;;;1.50;;
65658;SDS011;60181;53.258;6.932;2024-03-23T12:27:24;16.10;;;1.50;;
65658;SDS011;60181;53.258;6.932;2024-03-23T12:31:36;7.40;;;1.60;;
65658;SDS011;60181;53.258;6.932;2024-03-23T12:35:49;7.40;;;1.60;;
65658;SDS011;60181;53.258;6.932;2024-03-23T12:40:00;4.20;;;1.40;;
65658;SDS011;60181;53.258;6.932;2024-03-23T12:44:12;4.20;;;1.40;;
65658;SDS011;60181;53.258;6.932;2024-03-23T12:48:24;4.20;;;1.40;;
65658;SDS011;60181;53.258;6.932;2024-03-23T12:52:37;7.20;;;1.50;;
65658;SDS011;60181;53.258;6.932;2024-03-23T12:56:48;7.20;;;1.50;;
65658;SDS011;60181;53.258;6.932;2024-03-23T13:01:00;7.30;;;1.50;;
65658;SDS011;60181;53.258;6.932;2024-03-23T13:05:12;7.30;;;1.50;;
65658;SDS011;60181;53.258;6.932;2024-03-23T13:09:24;5.00;;;1.30;;
65658;SDS011;60181;53.258;6.932;2024-03-23T13:13:37;5.00;;;1.30;;
65658;SDS011;60181;53.258;6.932;2024-03-23T13:17:48;5.00;;;1.30;;
65658;SDS011;60181;53.258;6.932;2024-03-23T13:22:00;6.00;;;1.20;;
65658;SDS011;60181;53.258;6.932;2024-03-23T13:26:12;6.00;;;1.20;;
65658;SDS011;60181;53.258;6.932;2024-03-23T13:30:24;4.50;;;1.50;;
65658;SDS011;60181;53.258;6.932;2024-03-23T13:34:36;4.50;;;1.50;;
65658;SDS011;60181;53.258;6.932;2024-03-23T13:38:48;4.50;;;1.50;;
65658;SDS011;60181;53.258;6.932;2024-03-23T13:43:00;5.90;;;1.50;;
65658;SDS011;60181;53.258;6.932;2024-03-23T13:47:12;5.90;;;1.50;;
65658;SDS011;60181;53.258;6.932;2024-03-23T13:51:24;5.00;;;1.40;;
65658;SDS011;60181;53.258;6.932;2024-03-23T13:55:36;5.00;;;1.40;;
65658;SDS011;60181;53.258;6.932;2024-03-23T13:59:48;3.50;;;1.20;;
65658;SDS011;60181;53.258;6.932;2024-03-23T14:04:00;3.50;;;1.20;;
65658;SDS011;60181;53.258;6.932;2024-03-23T14:08:12;3.50;;;1.20;;
65658;SDS011;60181;53.258;6.932;2024-03-23T14:12:24;4.50;;;1.20;;
65658;SDS011;60181;53.258;6.932;2024-03-23T14:16:36;4.50;;;1.20;;
65658;SDS011;60181;53.258;6.932;2024-03-23T14:20:49;3.20;;;1.20;;
65658;SDS011;60181;53.258;6.932;2024-03-23T14:25:00;3.20;;;1.20;;
65658;SDS011;60181;53.258;6.932;2024-03-23T14:29:12;2.80;;;1.00;;
65658;SDS011;60181;53.258;6.932;2024-03-23T14:33:24;2.80;;;1.00;;
65658;SDS011;60181;53.258;6.932;2024-03-23T14:37:36;2.80;;;1.00;;
65658;SDS011;60181;53.258;6.932;2024-03-23T14:41:49;4.50;;;1.30;;
65658;SDS011;60181;53.258;6.932;2024-03-23T14:46:15;4.50;;;1.30;;
65658;SDS011;60181;53.258;6.932;2024-03-23T14:50:12;4.40;;;1.10;;
65658;SDS011;60181;53.258;6.932;2024-03-23T14:54:24;4.40;;;1.10;;
65658;SDS011;60181;53.258;6.932;2024-03-23T14:58:36;4.40;;;1.10;;
65658;SDS011;60181;53.258;6.932;2024-03-23T15:02:48;3.60;;;1.10;;
65658;SDS011;60181;53.258;6.932;2024-03-23T15:07:00;3.60;;;1.10;;
65658;SDS011;60181;53.258;6.932;2024-03-23T15:11:12;3.70;;;1.20;;
65658;SDS011;60181;53.258;6.932;2024-03-23T15:15:24;3.70;;;1.20;;
65658;SDS011;60181;53.258;6.932;2024-03-23T15:19:36;3.90;;;1.00;;
65658;SDS011;60181;53.258;6.932;2024-03-23T15:23:48;3.90;;;1.00;;
65658;SDS011;60181;53.258;6.932;2024-03-23T15:28:00;3.90;;;1.00;;
65658;SDS011;60181;53.258;6.932;2024-03-23T15:32:12;3.60;;;1.10;;
65658;SDS011;60181;53.258;6.932;2024-03-23T15:36:24;3.60;;;1.10;;
65658;SDS011;60181;53.258;6.932;2024-03-23T15:40:36;4.60;;;1.10;;
65658;SDS011;60181;53.258;6.932;2024-03-23T15:44:48;4.60;;;1.10;;
65658;SDS011;60181;53.258;6.932;2024-03-23T15:49:00;2.60;;;0.90;;
65658;SDS011;60181;53.258;6.932;2024-03-23T15:53:12;2.60;;;0.90;;
65658;SDS011;60181;53.258;6.932;2024-03-23T15:57:24;2.60;;;0.90;;
65658;SDS011;60181;53.258;6.932;2024-03-23T16:01:36;3.00;;;1.10;;
65658;SDS011;60181;53.258;6.932;2024-03-23T16:05:51;3.00;;;1.10;;
65658;SDS011;60181;53.258;6.932;2024-03-23T16:10:00;2.40;;;0.90;;
65658;SDS011;60181;53.258;6.932;2024-03-23T16:14:12;2.40;;;0.90;;
65658;SDS011;60181;53.258;6.932;2024-03-23T16:18:24;2.40;;;0.90;;
65658;SDS011;60181;53.258;6.932;2024-03-23T16:22:36;2.80;;;0.90;;
65658;SDS011;60181;53.258;6.932;2024-03-23T16:26:48;2.80;;;0.90;;
65658;SDS011;60181;53.258;6.932;2024-03-23T16:31:06;3.70;;;0.90;;
65658;SDS011;60181;53.258;6.932;2024-03-23T16:35:12;3.70;;;0.90;;
65658;SDS011;60181;53.258;6.932;2024-03-23T16:39:24;2.90;;;1.00;;
65658;SDS011;60181;53.258;6.932;2024-03-23T16:43:36;2.90;;;1.00;;
65658;SDS011;60181;53.258;6.932;2024-03-23T16:47:48;2.90;;;1.00;;
65658;SDS011;60181;53.258;6.932;2024-03-23T16:52:00;2.80;;;1.00;;
65658;SDS011;60181;53.258;6.932;2024-03-23T16:56:12;2.80;;;1.00;;
65658;SDS011;60181;53.258;6.932;2024-03-23T17:00:24;3.00;;;0.90;;
65658;SDS011;60181;53.258;6.932;2024-03-23T17:04:36;3.00;;;0.90;;
65658;SDS011;60181;53.258;6.932;2024-03-23T17:08:48;3.00;;;0.90;;
65658;SDS011;60181;53.258;6.932;2024-03-23T17:13:00;3.00;;;0.80;;
65658;SDS011;60181;53.258;6.932;2024-03-23T17:17:12;3.00;;;0.80;;
65658;SDS011;60181;53.258;6.932;2024-03-23T17:21:24;3.90;;;0.90;;
65658;SDS011;60181;53.258;6.932;2024-03-23T17:25:36;3.90;;;0.90;;
65658;SDS011;60181;53.258;6.932;2024-03-23T17:29:48;4.80;;;1.00;;
65658;SDS011;60181;53.258;6.932;2024-03-23T17:34:00;4.80;;;1.00;;
65658;SDS011;60181;53.258;6.932;2024-03-23T17:38:12;4.80;;;1.00;;
65658;SDS011;60181;53.258;6.932;2024-03-23T17:42:24;5.00;;;1.00;;
65658;SDS011;60181;53.258;6.932;2024-03-23T17:46:36;5.00;;;1.00;;
65658;SDS011;60181;53.258;6.932;2024-03-23T17:50:48;3.40;;;0.90;;
65658;SDS011;60181;53.258;6.932;2024-03-23T17:55:00;3.40;;;0.90;;
65658;SDS011;60181;53.258;6.932;2024-03-23T17:59:12;4.20;;;0.80;;
65658;SDS011;60181;53.258;6.932;2024-03-23T18:03:24;4.20;;;0.80;;
65658;SDS011;60181;53.258;6.932;2024-03-23T18:07:36;4.20;;;0.80;;
65658;SDS011;60181;53.258;6.932;2024-03-23T18:11:48;4.90;;;1.00;;
65658;SDS011;60181;53.258;6.932;2024-03-23T18:16:00;4.90;;;1.00;;
65658;SDS011;60181;53.258;6.932;2024-03-23T18:20:12;3.50;;;1.00;;
65658;SDS011;60181;53.258;6.932;2024-03-23T18:24:24;3.50;;;1.00;;
65658;SDS011;60181;53.258;6.932;2024-03-23T18:28:36;3.50;;;1.00;;
65658;SDS011;60181;53.258;6.932;2024-03-23T18:32:48;3.50;;;1.10;;
65658;SDS011;60181;53.258;6.932;2024-03-23T18:37:00;3.50;;;1.10;;
65658;SDS011;60181;53.258;6.932;2024-03-23T18:41:12;3.10;;;1.00;;
65658;SDS011;60181;53.258;6.932;2024-03-23T18:45:24;3.10;;;1.00;;
65658;SDS011;60181;53.258;6.932;2024-03-23T18:49:36;3.90;;;1.00;;
65658;SDS011;60181;53.258;6.932;2024-03-23T18:53:48;3.90;;;1.00;;
65658;SDS011;60181;53.258;6.932;2024-03-23T18:58:00;3.90;;;1.00;;
65658;SDS011;60181;53.258;6.932;2024-03-23T19:02:12;3.90;;;1.10;;
65658;SDS011;60181;53.258;6.932;2024-03-23T19:06:24;3.90;;;1.10;;
65658;SDS011;60181;53.258;6.932;2024-03-23T19:10:36;7.90;;;1.30;;
65658;SDS011;60181;53.258;6.932;2024-03-23T19:14:48;7.90;;;1.30;;
65658;SDS011;60181;53.258;6.932;2024-03-23T19:19:00;7.80;;;1.20;;
65658;SDS011;60181;53.258;6.932;2024-03-23T19:23:12;7.80;;;1.20;;
65658;SDS011;60181;53.258;6.932;2024-03-23T19:27:24;7.80;;;1.20;;
65658;SDS011;60181;53.258;6.932;2024-03-23T19:31:36;4.80;;;1.20;;
65658;SDS011;60181;53.258;6.932;2024-03-23T19:35:54;4.80;;;1.20;;
65658;SDS011;60181;53.258;6.932;2024-03-23T19:40:00;5.30;;;1.20;;
65658;SDS011;60181;53.258;6.932;2024-03-23T19:44:12;5.30;;;1.20;;
65658;SDS011;60181;53.258;6.932;2024-03-23T19:48:24;5.30;;;1.20;;
65658;SDS011;60181;53.258;6.932;2024-03-23T19:52:36;3.60;;;1.10;;
65658;SDS011;60181;53.258;6.932;2024-03-23T19:56:48;3.60;;;1.10;;
65658;SDS011;60181;53.258;6.932;2024-03-23T20:01:18;4.80;;;1.10;;
65658;SDS011;60181;53.258;6.932;2024-03-23T20:05:12;4.80;;;1.10;;
65658;SDS011;60181;53.258;6.932;2024-03-23T20:09:24;4.30;;;1.00;;
65658;SDS011;60181;53.258;6.932;2024-03-23T20:13:36;4.30;;;1.00;;
65658;SDS011;60181;53.258;6.932;2024-03-23T20:17:48;4.30;;;1.00;;
65658;SDS011;60181;53.258;6.932;2024-03-23T20:22:00;4.20;;;1.20;;
65658;SDS011;60181;53.258;6.932;2024-03-23T20:26:12;4.20;;;1.20;;
65658;SDS011;60181;53.258;6.932;2024-03-23T20:30:24;4.80;;;1.20;;
65658;SDS011;60181;53.258;6.932;2024-03-23T20:34:36;4.80;;;1.20;;
65658;SDS011;60181;53.258;6.932;2024-03-23T20:38:48;4.80;;;1.20;;
65658;SDS011;60181;53.258;6.932;2024-03-23T20:43:05;4.30;;;1.00;;
65658;SDS011;60181;53.258;6.932;2024-03-23T20:47:12;4.30;;;1.00;;
65658;SDS011;60181;53.258;6.932;2024-03-23T20:51:24;3.10;;;1.00;;
65658;SDS011;60181;53.258;6.932;2024-03-23T20:55:36;3.10;;;1.00;;
65658;SDS011;60181;53.258;6.932;2024-03-23T20:59:48;3.20;;;1.00;;
65658;SDS011;60181;53.258;6.932;2024-03-23T21:04:00;3.20;;;1.00;;
65658;SDS011;60181;53.258;6.932;2024-03-23T21:08:12;3.20;;;1.00;;
65658;SDS011;60181;53.258;6.932;2024-03-23T21:12:24;4.30;;;1.10;;
65658;SDS011;60181;53.258;6.932;2024-03-23T21:16:36;4.30;;;1.10;;
65658;SDS011;60181;53.258;6.932;2024-03-23T21:20:52;3.80;;;1.10;;
65658;SDS011;60181;53.258;6.932;2024-03-23T21:25:00;3.80;;;1.10;;
65658;SDS011;60181;53.258;6.932;2024-03-23T21:29:12;5.00;;;1.10;;
65658;SDS011;60181;53.258;6.932;2024-03-23T21:33:24;5.00;;;1.10;;
65658;SDS011;60181;53.258;6.932;2024-03-23T21:37:36;5.00;;;1.10;;
65658;SDS011;60181;53.258;6.932;2024-03-23T21:41:48;2.80;;;0.90;;
65658;SDS011;60181;53.258;6.932;2024-03-23T21:46:03;2.80;;;0.90;;
65658;SDS011;60181;53.258;6.932;2024-03-23T21:50:12;4.40;;;0.90;;
65658;SDS011;60181;53.258;6.932;2024-03-23T21:54:24;4.40;;;0.90;;
65658;SDS011;60181;53.258;6.932;2024-03-23T21:58:36;4.40;;;0.90;;
65658;SDS011;60181;53.258;6.932;2024-03-23T22:02:48;3.20;;;0.90;;
65658;SDS011;60181;53.258;6.932;2024-03-23T22:07:00;3.20;;;0.90;;
65658;SDS011;60181;53.258;6.932;2024-03-23T22:11:12;3.30;;;1.00;;
65658;SDS011;60181;53.258;6.932;2024-03-23T22:15:23;3.30;;;1.00;;
65658;SDS011;60181;53.258;6.932;2024-03-23T22:19:35;8.10;;;1.60;;
65658;SDS011;60181;53.258;6.932;2024-03-23T22:23:47;8.10;;;1.60;;
65658;SDS011;60181;53.258;6.932;2024-03-23T22:27:59;8.10;;;1.60;;
65658;SDS011;60181;53.258;6.932;2024-03-23T22:32:11;4.60;;;1.60;;
65658;SDS011;60181;53.258;6.932;2024-03-23T22:36:23;4.60;;;1.60;;
65658;SDS011;60181;53.258;6.932;2024-03-23T22:40:36;5.60;;;1.80;;
65658;SDS011;60181;53.258;6.932;2024-03-23T22:44:47;5.60;;;1.80;;
65658;SDS011;60181;53.258;6.932;2024-03-23T22:48:59;5.10;;;1.60;;
65658;SDS011;60181;53.258;6.932;2024-03-23T22:53:11;5.10;;;1.60;;
65658;SDS011;60181;53.258;6.932;2024-03-23T22:57:23;5.10;;;1.60;;
65658;SDS011;60181;53.258;6.932;2024-03-23T23:01:35;5.10;;;1.90;;
65658;SDS011;60181;53.258;6.932;2024-03-23T23:05:57;5.10;;;1.90;;
65658;SDS011;60181;53.258;6.932;2024-03-23T23:09:59;5.20;;;1.80;;
65658;SDS011;60181;53.258;6.932;2024-03-23T23:14:11;5.20;;;1.80;;
65658;SDS011;60181;53.258;6.932;2024-03-23T23:18:24;5.20;;;1.80;;
65658;SDS011;60181;53.258;6.932;2024-03-23T23:22:36;6.40;;;1.90;;
65658;SDS011;60181;53.258;6.932;2024-03-23T23:26:47;6.40;;;1.90;;
65658;SDS011;60181;53.258;6.932;2024-03-23T23:31:00;9.00;;;2.00;;
65658;SDS011;60181;53.258;6.932;2024-03-23T23:35:12;9.00;;;2.00;;
65658;SDS011;60181;53.258;6.932;2024-03-23T23:39:23;7.80;;;1.90;;
65658;SDS011;60181;53.258;6.932;2024-03-23T23:43:35;7.80;;;1.90;;
65658;SDS011;60181;53.258;6.932;2024-03-23T23:47:47;7.80;;;1.90;;
65658;SDS011;60181;53.258;6.932;2024-03-23T23:51:59;8.50;;;2.00;;
65658;SDS011;60181;53.258;6.932;2024-03-23T23:56:11;8.50;;;2.00;;
